createdAt,value
2023-04-19T00:01:29.665Z,100.00
2023-04-19T00:04:00.313Z,100.00
2023-04-19T00:06:30.620Z,100.00
2023-04-19T00:09:00.028Z,100.00
2023-04-19T00:11:29.106Z,100.00
2023-04-19T00:13:58.102Z,100.00
2023-04-19T00:16:27.303Z,100.00
2023-04-19T00:18:56.805Z,100.00
2023-04-19T00:21:27.574Z,100.00
2023-04-19T00:23:56.729Z,100.00
2023-04-19T00:26:26.201Z,100.00
2023-04-19T00:28:55.467Z,100.00
2023-04-19T00:31:24.808Z,100.00
2023-04-19T00:33:54.041Z,100.00
2023-04-19T00:36:23.197Z,100.00
2023-04-19T00:38:53.748Z,100.00
2023-04-19T00:41:22.967Z,100.00
2023-04-19T00:43:52.095Z,100.00
2023-04-19T00:46:21.943Z,100.00
2023-04-19T00:48:52.057Z,100.00
2023-04-19T00:51:21.844Z,100.00
2023-04-19T00:53:53.156Z,100.00
2023-04-19T00:56:24.359Z,100.00
2023-04-19T00:58:56.688Z,100.00
2023-04-19T01:01:25.986Z,100.00
2023-04-19T01:03:55.686Z,100.00
2023-04-19T01:06:25.014Z,100.00
2023-04-19T01:08:55.700Z,100.00
2023-04-19T01:11:25.169Z,100.00
2023-04-19T01:13:54.577Z,100.00
2023-04-19T01:16:23.785Z,100.00
2023-04-19T01:18:53.252Z,100.00
2023-04-19T01:21:23.462Z,100.00
2023-04-19T01:23:54.150Z,100.00
2023-04-19T01:26:24.898Z,100.00
2023-04-19T01:28:53.906Z,100.00
2023-04-19T01:31:23.043Z,100.00
2023-04-19T01:33:52.121Z,100.00
2023-04-19T01:36:21.272Z,100.00
2023-04-19T01:38:51.417Z,100.00
2023-04-19T01:41:23.085Z,100.00
2023-04-19T01:43:52.247Z,100.00
2023-04-19T01:46:21.479Z,100.00
2023-04-19T01:48:50.625Z,100.00
2023-04-19T01:51:22.008Z,100.00
2023-04-19T01:53:53.928Z,100.00
2023-04-19T01:56:26.868Z,100.00
2023-04-19T01:58:56.313Z,100.00
2023-04-19T02:01:25.663Z,100.00
2023-04-19T02:03:54.865Z,100.00
2023-04-19T02:06:24.992Z,100.00
2023-04-19T02:08:54.222Z,100.00
2023-04-19T02:11:23.447Z,100.00
2023-04-19T02:13:54.086Z,100.00
2023-04-19T02:16:23.365Z,100.00
2023-04-19T02:18:53.585Z,100.00
2023-04-19T02:21:23.097Z,100.00
2023-04-19T02:23:52.397Z,100.00
2023-04-19T02:26:21.986Z,100.00
2023-04-19T02:28:54.129Z,100.00
2023-04-19T02:31:23.635Z,100.00
2023-04-19T02:33:52.867Z,100.00
2023-04-19T02:36:22.044Z,100.00
2023-04-19T02:38:51.308Z,100.00
2023-04-19T02:41:22.467Z,100.00
2023-04-19T02:43:51.775Z,100.00
2023-04-19T02:46:22.655Z,100.00
2023-04-19T02:48:51.952Z,100.00
2023-04-19T02:51:21.405Z,100.00
2023-04-19T02:53:50.543Z,100.00
2023-04-19T02:56:19.752Z,100.00
2023-04-19T02:58:49.912Z,100.00
2023-04-19T03:01:19.017Z,100.00
2023-04-19T03:03:49.828Z,100.00
2023-04-19T03:06:19.225Z,100.00
2023-04-19T03:08:48.392Z,100.00
2023-04-19T03:11:19.847Z,100.00
2023-04-19T03:13:49.431Z,100.00
2023-04-19T03:16:18.578Z,100.00
2023-04-19T03:18:49.566Z,100.00
2023-04-19T03:21:22.850Z,100.00
2023-04-19T03:23:55.603Z,100.00
2023-04-19T03:26:26.688Z,100.00
2023-04-19T03:28:58.530Z,100.00
2023-04-19T03:31:48.045Z,100.00
2023-04-19T03:34:19.138Z,100.00
2023-04-19T03:36:50.694Z,100.00
2023-04-19T03:39:21.214Z,100.00
2023-04-19T03:41:53.566Z,100.00
2023-04-19T03:44:38.456Z,100.00
2023-04-19T03:47:09.380Z,100.00
2023-04-19T03:49:45.998Z,100.00
2023-04-19T03:52:15.570Z,100.00
2023-04-19T03:54:44.727Z,100.00
2023-04-19T03:57:26.824Z,100.00
2023-04-19T03:59:57.194Z,100.00
2023-04-19T04:02:26.675Z,100.00
2023-04-19T04:04:57.682Z,100.00
2023-04-19T04:07:27.013Z,100.00
2023-04-19T04:09:56.645Z,100.00
2023-04-19T04:12:26.109Z,100.00
2023-04-19T04:14:58.469Z,100.00
2023-04-19T04:17:27.842Z,100.00
2023-04-19T04:19:58.978Z,100.00
2023-04-19T04:22:33.117Z,100.00
2023-04-19T04:25:02.610Z,100.00
2023-04-19T04:27:39.578Z,100.00
2023-04-19T04:30:15.470Z,100.00
2023-04-19T04:32:45.218Z,100.00
2023-04-19T04:35:15.868Z,100.00
2023-04-19T04:37:54.091Z,100.00
2023-04-19T04:40:23.593Z,100.00
2023-04-19T04:42:54.443Z,100.00
2023-04-19T04:45:26.168Z,100.00
2023-04-19T04:47:55.507Z,100.00
2023-04-19T04:50:26.097Z,100.00
2023-04-19T04:52:55.885Z,100.00
2023-04-19T04:55:30.457Z,100.00
2023-04-19T04:57:59.873Z,100.00
2023-04-19T05:00:46.260Z,100.00
2023-04-19T05:03:15.549Z,100.00
2023-04-19T05:05:52.008Z,100.00
2023-04-19T05:08:21.262Z,100.00
2023-04-19T05:10:50.973Z,100.00
2023-04-19T05:13:22.537Z,100.00
2023-04-19T05:15:53.206Z,100.00
2023-04-19T05:18:22.677Z,100.00
2023-04-19T05:20:53.353Z,100.00
2023-04-19T05:23:27.051Z,100.00
2023-04-19T05:25:56.863Z,100.00
2023-04-19T05:28:28.796Z,100.00
2023-04-19T05:31:07.704Z,100.00
2023-04-19T05:33:43.422Z,100.00
2023-04-19T05:36:14.057Z,100.00
2023-04-19T05:38:43.173Z,100.00
2023-04-19T05:41:12.879Z,100.00
2023-04-19T05:43:41.976Z,100.00
2023-04-19T05:46:11.628Z,100.00
2023-04-19T05:48:41.009Z,100.00
2023-04-19T05:51:34.480Z,100.00
2023-04-19T05:54:12.789Z,100.00
2023-04-19T05:56:43.514Z,100.00
2023-04-19T05:59:14.287Z,100.00
2023-04-19T06:01:43.575Z,100.00
2023-04-19T06:04:13.043Z,100.00
2023-04-19T06:06:44.609Z,100.00
2023-04-19T06:09:18.406Z,100.00
2023-04-19T06:11:51.381Z,100.00
2023-04-19T06:14:21.001Z,100.00
2023-04-19T06:16:50.274Z,100.00
2023-04-19T06:19:19.726Z,100.00
2023-04-19T06:21:50.438Z,100.00
2023-04-19T06:24:19.765Z,100.00
2023-04-19T06:26:49.931Z,100.00
2023-04-19T06:29:20.738Z,100.00
2023-04-19T06:31:50.321Z,100.00
2023-04-19T06:34:19.861Z,100.00
2023-04-19T06:36:50.570Z,100.00
2023-04-19T06:39:19.653Z,100.00
2023-04-19T06:41:48.945Z,100.00
2023-04-19T06:44:19.960Z,100.00
2023-04-19T06:46:49.096Z,100.00
2023-04-19T06:49:18.230Z,100.00
2023-04-19T06:51:47.478Z,100.00
2023-04-19T06:54:18.427Z,100.00
2023-04-19T06:56:49.167Z,100.00
2023-04-19T06:59:20.218Z,100.00
2023-04-19T07:01:49.857Z,100.00
2023-04-19T07:04:19.594Z,100.00
2023-04-19T07:06:51.261Z,100.00
2023-04-19T07:09:21.808Z,100.00
2023-04-19T07:11:51.671Z,100.00
2023-04-19T07:14:20.859Z,100.00
2023-04-19T07:16:50.958Z,100.00
2023-04-19T07:19:23.053Z,100.00
2023-04-19T07:21:52.853Z,100.00
2023-04-19T07:24:23.470Z,100.00
2023-04-19T07:26:52.632Z,100.00
2023-04-19T07:29:21.752Z,100.00
2023-04-19T07:31:50.874Z,100.00
2023-04-19T07:34:20.158Z,100.00
2023-04-19T07:36:49.160Z,100.00
2023-04-19T07:39:18.274Z,100.00
2023-04-19T07:41:48.757Z,100.00
2023-04-19T07:44:18.384Z,100.00
2023-04-19T07:46:47.776Z,100.00
2023-04-19T07:49:17.956Z,100.00
2023-04-19T07:51:46.950Z,100.00
2023-04-19T07:54:17.049Z,100.00
2023-04-19T07:56:47.816Z,100.00
2023-04-19T07:59:17.050Z,100.00
2023-04-19T08:01:46.460Z,100.00
2023-04-19T08:04:18.268Z,100.00
2023-04-19T08:06:47.777Z,100.00
2023-04-19T08:09:16.917Z,100.00
2023-04-19T08:11:47.469Z,100.00
2023-04-19T08:14:32.537Z,100.00
2023-04-19T08:19:37.492Z,100.00
2023-04-19T08:22:07.170Z,100.00
2023-04-19T08:24:36.443Z,100.00
2023-04-19T08:27:07.207Z,100.00
2023-04-19T08:29:36.483Z,100.00
2023-04-19T08:32:06.016Z,100.00
2023-04-19T08:34:37.532Z,100.00
2023-04-19T08:37:07.584Z,100.00
2023-04-19T08:39:37.403Z,100.00
2023-04-19T08:42:18.315Z,100.00
2023-04-19T08:45:23.178Z,100.00
2023-04-19T08:47:59.778Z,100.00
2023-04-19T08:50:36.207Z,100.00
2023-04-19T08:53:24.580Z,100.00
2023-04-19T08:56:12.722Z,100.00
2023-04-19T09:01:33.881Z,100.00
2023-04-19T09:04:26.228Z,100.00
2023-04-19T09:06:55.436Z,100.00
2023-04-19T09:11:59.528Z,100.00
2023-04-19T09:14:30.946Z,100.00
2023-04-19T09:17:17.606Z,100.00
2023-04-19T09:19:50.978Z,100.00
2023-04-19T09:22:20.472Z,100.00
2023-04-19T09:27:29.452Z,100.00
2023-04-19T09:30:01.337Z,100.00
2023-04-19T09:32:49.243Z,100.00
2023-04-19T09:35:18.487Z,100.00
2023-04-19T09:38:06.128Z,100.00
2023-04-19T09:40:36.435Z,100.00
2023-04-19T09:45:45.967Z,100.00
2023-04-19T09:48:15.520Z,100.00
2023-04-19T09:51:00.945Z,100.00
2023-04-19T09:53:35.701Z,100.00
2023-04-19T09:56:06.486Z,100.00
2023-04-19T09:58:49.051Z,100.00
2023-04-19T10:01:27.011Z,100.00
2023-04-19T10:03:59.212Z,100.00
2023-04-19T10:06:58.236Z,100.00
2023-04-19T10:09:27.202Z,100.00
2023-04-19T10:12:04.679Z,100.00
2023-04-19T10:14:46.604Z,100.00
2023-04-19T10:17:17.981Z,100.00
2023-04-19T10:19:48.759Z,100.00
2023-04-19T10:22:18.190Z,100.00
2023-04-19T10:25:19.957Z,100.00
2023-04-19T10:27:51.659Z,100.00
2023-04-19T10:30:22.022Z,100.00
2023-04-19T10:32:56.661Z,100.00
2023-04-19T10:35:27.551Z,100.00
2023-04-19T10:38:13.564Z,100.00
2023-04-19T10:41:01.028Z,100.00
2023-04-19T10:43:31.450Z,100.00
2023-04-19T10:46:08.359Z,100.00
2023-04-19T10:48:53.838Z,100.00
2023-04-19T10:51:29.390Z,100.00
2023-04-19T10:54:00.305Z,100.00
2023-04-19T10:57:12.612Z,100.00
2023-04-19T10:59:44.464Z,100.00
2023-04-19T11:02:31.139Z,99.83
2023-04-19T11:05:04.537Z,100.00
2023-04-19T11:07:42.293Z,99.77
2023-04-19T11:10:13.082Z,97.67
2023-04-19T11:12:46.421Z,95.78
2023-04-19T11:15:15.564Z,96.80
2023-04-19T11:17:44.889Z,96.10
2023-04-19T11:20:16.013Z,96.79
2023-04-19T11:22:47.739Z,95.68
2023-04-19T11:25:19.322Z,93.72
2023-04-19T11:27:52.506Z,95.31
2023-04-19T11:30:30.908Z,96.76
2023-04-19T11:33:00.238Z,98.49
2023-04-19T11:35:31.666Z,98.99
2023-04-19T11:38:01.902Z,100.00
2023-04-19T11:40:31.504Z,94.77
2023-04-19T11:43:02.547Z,93.94
2023-04-19T11:45:36.494Z,95.28
2023-04-19T11:48:09.180Z,93.10
2023-04-19T11:50:41.905Z,98.17
2023-04-19T11:53:16.897Z,100.00
2023-04-19T11:55:47.804Z,100.00
2023-04-19T11:58:32.447Z,100.00
2023-04-19T12:01:07.064Z,100.00
2023-04-19T12:03:37.398Z,100.00
2023-04-19T12:06:10.809Z,100.00
2023-04-19T12:08:40.956Z,100.00
2023-04-19T12:11:11.382Z,100.00
2023-04-19T12:13:41.129Z,100.00
2023-04-19T12:16:10.614Z,100.00
2023-04-19T12:18:49.279Z,100.00
2023-04-19T12:21:32.309Z,100.00
2023-04-19T12:24:03.930Z,100.00
2023-04-19T12:26:32.941Z,98.58
2023-04-19T12:29:04.262Z,91.90
2023-04-19T12:31:33.897Z,89.86
2023-04-19T12:34:03.085Z,90.63
2023-04-19T12:36:33.726Z,90.86
2023-04-19T12:39:02.947Z,92.70
2023-04-19T12:41:32.127Z,89.51
2023-04-19T12:44:01.365Z,85.99
2023-04-19T12:46:30.449Z,85.90
2023-04-19T12:48:59.753Z,82.33
2023-04-19T12:51:29.372Z,80.84
2023-04-19T12:54:00.154Z,81.38
2023-04-19T12:56:29.320Z,80.30
2023-04-19T12:58:58.590Z,79.53
2023-04-19T13:01:27.799Z,80.31
2023-04-19T13:03:59.275Z,79.29
2023-04-19T13:06:29.276Z,77.74
2023-04-19T13:11:31.425Z,79.97
2023-04-19T13:14:00.672Z,82.44
2023-04-19T13:16:29.733Z,81.71
2023-04-19T13:18:58.960Z,78.31
2023-04-19T13:21:28.257Z,81.70
2023-04-19T13:23:59.554Z,83.52
2023-04-19T13:26:30.431Z,84.65
2023-04-19T13:28:59.758Z,84.48
2023-04-19T13:31:29.277Z,88.54
2023-04-19T13:34:00.780Z,87.49
2023-04-19T13:36:30.074Z,89.16
2023-04-19T13:38:59.951Z,91.94
2023-04-19T13:41:31.573Z,90.63
2023-04-19T13:44:00.641Z,90.20
2023-04-19T13:46:29.880Z,91.90
2023-04-19T13:48:59.099Z,91.77
2023-04-19T13:51:38.742Z,91.67
2023-04-19T13:54:18.122Z,93.10
2023-04-19T13:56:51.962Z,91.79
2023-04-19T13:59:22.061Z,90.75
2023-04-19T14:01:51.309Z,89.18
2023-04-19T14:04:21.023Z,90.35
2023-04-19T14:06:50.623Z,91.05
2023-04-19T14:09:19.717Z,91.02
2023-04-19T14:11:50.373Z,92.32
2023-04-19T14:14:19.522Z,91.60
2023-04-19T14:16:48.839Z,92.93
2023-04-19T14:19:18.024Z,91.98
2023-04-19T14:21:47.385Z,91.56
2023-04-19T14:24:16.745Z,91.03
2023-04-19T14:26:48.673Z,89.31
2023-04-19T14:29:25.635Z,88.02
2023-04-19T14:31:54.721Z,91.11
2023-04-19T14:34:24.089Z,94.30
2023-04-19T14:36:53.348Z,95.17
2023-04-19T14:39:22.687Z,95.65
2023-04-19T14:41:51.862Z,97.04
2023-04-19T14:44:21.046Z,100.00
2023-04-19T14:46:51.607Z,100.00
2023-04-19T14:49:20.753Z,100.00
2023-04-19T14:51:49.914Z,100.00
2023-04-19T14:54:19.010Z,99.29
2023-04-19T14:56:48.313Z,97.09
2023-04-19T14:59:18.206Z,99.01
2023-04-19T15:01:47.545Z,100.00
2023-04-19T15:04:18.400Z,100.00
2023-04-19T15:06:47.732Z,100.00
2023-04-19T15:09:17.096Z,98.46
2023-04-19T15:11:46.845Z,96.76
2023-04-19T15:14:16.036Z,98.22
2023-04-19T15:16:45.249Z,99.07
2023-04-19T15:19:14.904Z,100.00
2023-04-19T15:21:45.792Z,100.00
2023-04-19T15:24:14.925Z,100.00
2023-04-19T15:26:44.706Z,100.00
2023-04-19T15:29:14.244Z,100.00
2023-04-19T15:31:43.598Z,100.00
2023-04-19T15:34:12.795Z,100.00
2023-04-19T15:36:42.013Z,100.00
2023-04-19T15:39:12.622Z,100.00
2023-04-19T15:41:41.745Z,100.00
2023-04-19T15:44:11.140Z,100.00
2023-04-19T15:46:40.560Z,100.00
2023-04-19T15:49:09.860Z,100.00
2023-04-19T15:51:39.822Z,100.00
2023-04-19T15:54:08.991Z,100.00
2023-04-19T15:56:39.649Z,100.00
2023-04-19T15:59:08.812Z,100.00
2023-04-19T16:01:38.121Z,100.00
2023-04-19T16:04:07.823Z,100.00
2023-04-19T16:06:37.295Z,100.00
2023-04-19T16:09:08.512Z,100.00
2023-04-19T16:11:39.869Z,100.00
2023-04-19T16:14:09.079Z,100.00
2023-04-19T16:16:38.685Z,100.00
2023-04-19T16:19:07.949Z,100.00
2023-04-19T16:21:37.287Z,100.00
2023-04-19T16:24:07.062Z,100.00
2023-04-19T16:26:36.267Z,100.00
2023-04-19T16:29:07.178Z,100.00
2023-04-19T16:31:36.782Z,100.00
2023-04-19T16:34:06.099Z,100.00
2023-04-19T16:36:35.406Z,100.00
2023-04-19T16:39:04.722Z,100.00
2023-04-19T16:41:33.850Z,100.00
2023-04-19T16:44:03.050Z,100.00
2023-04-19T16:46:33.901Z,100.00
2023-04-19T16:49:03.357Z,100.00
2023-04-19T16:51:32.803Z,100.00
2023-04-19T16:54:02.306Z,100.00
2023-04-19T16:56:31.821Z,100.00
2023-04-19T16:59:01.692Z,100.00
2023-04-19T17:01:31.102Z,100.00
2023-04-19T17:04:02.030Z,100.00
2023-04-19T17:06:32.293Z,100.00
2023-04-19T17:09:05.188Z,100.00
2023-04-19T17:11:34.354Z,100.00
2023-04-19T17:14:03.533Z,100.00
2023-04-19T17:16:32.883Z,100.00
2023-04-19T17:19:03.628Z,100.00
2023-04-19T17:21:32.857Z,100.00
2023-04-19T17:24:02.097Z,100.00
2023-04-19T17:26:31.476Z,100.00
2023-04-19T17:29:02.061Z,100.00
2023-04-19T17:31:31.440Z,100.00
2023-04-19T17:34:00.731Z,100.00
2023-04-19T17:36:31.840Z,100.00
2023-04-19T17:39:01.183Z,100.00
2023-04-19T17:41:30.597Z,100.00
2023-04-19T17:43:59.777Z,100.00
2023-04-19T17:46:29.236Z,100.00
2023-04-19T17:48:58.553Z,100.00
2023-04-19T17:51:27.850Z,100.00
2023-04-19T17:53:58.581Z,100.00
2023-04-19T17:56:27.724Z,100.00
2023-04-19T17:58:57.232Z,100.00
2023-04-19T18:01:26.418Z,100.00
2023-04-19T18:03:55.876Z,100.00
2023-04-19T18:06:25.238Z,100.00
2023-04-19T18:08:54.537Z,100.00
2023-04-19T18:11:27.674Z,100.00
2023-04-19T18:13:57.962Z,100.00
2023-04-19T18:16:27.229Z,100.00
2023-04-19T18:18:56.645Z,100.00
2023-04-19T18:21:26.105Z,100.00
2023-04-19T18:23:56.572Z,100.00
2023-04-19T18:26:27.236Z,100.00
2023-04-19T18:28:56.567Z,100.00
2023-04-19T18:31:25.963Z,100.00
2023-04-19T18:33:55.339Z,100.00
2023-04-19T18:36:24.639Z,100.00
2023-04-19T18:38:53.930Z,100.00
2023-04-19T18:41:23.472Z,100.00
2023-04-19T18:44:24.903Z,100.00
2023-04-19T18:46:44.285Z,100.00
2023-04-19T18:49:13.820Z,100.00
2023-04-19T18:51:43.038Z,100.00
2023-04-19T18:54:12.335Z,100.00
2023-04-19T18:57:14.812Z,100.00
2023-04-19T18:59:32.148Z,100.00
2023-04-19T19:02:01.403Z,100.00
2023-04-19T19:04:48.362Z,100.00
2023-04-19T19:09:57.238Z,100.00
2023-04-19T19:12:26.867Z,100.00
2023-04-19T19:14:57.527Z,100.00
2023-04-19T19:17:28.277Z,100.00
2023-04-19T19:19:57.799Z,100.00
2023-04-19T19:22:29.032Z,100.00
2023-04-19T19:24:58.571Z,100.00
2023-04-19T19:27:27.859Z,100.00
2023-04-19T19:29:58.983Z,100.00
2023-04-19T19:32:28.282Z,100.00
2023-04-19T19:35:02.382Z,100.00
2023-04-19T19:37:34.295Z,100.00
2023-04-19T19:40:05.418Z,100.00
2023-04-19T19:42:36.051Z,100.00
2023-04-19T19:45:08.234Z,100.00
2023-04-19T19:47:43.389Z,100.00
2023-04-19T19:52:47.673Z,100.00
2023-04-19T19:55:16.905Z,100.00
2023-04-19T20:02:56.061Z,100.00
2023-04-19T20:05:26.337Z,100.00
2023-04-19T20:08:08.728Z,100.00
2023-04-19T20:10:40.027Z,100.00
2023-04-19T20:13:09.563Z,100.00
2023-04-19T20:15:41.157Z,100.00
2023-04-19T20:18:10.363Z,100.00
2023-04-19T20:20:39.779Z,100.00
2023-04-19T20:23:08.961Z,100.00
2023-04-19T20:25:38.866Z,100.00
2023-04-19T20:28:09.695Z,100.00
2023-04-19T20:30:40.466Z,100.00
2023-04-19T20:33:09.869Z,100.00
2023-04-19T20:35:39.193Z,100.00
2023-04-19T20:38:08.632Z,100.00
2023-04-19T20:40:37.844Z,100.00
2023-04-19T20:43:08.499Z,100.00
2023-04-19T20:45:37.881Z,100.00
2023-04-19T20:48:08.827Z,100.00
2023-04-19T20:50:38.129Z,100.00
2023-04-19T20:53:07.346Z,100.00
2023-04-19T20:55:38.468Z,100.00
2023-04-19T20:58:07.671Z,100.00
2023-04-19T21:00:36.893Z,100.00
2023-04-19T21:03:08.210Z,100.00
2023-04-19T21:05:37.487Z,100.00
2023-04-19T21:08:06.898Z,100.00
2023-04-19T21:10:38.876Z,100.00
2023-04-19T21:13:08.185Z,100.00
2023-04-19T21:15:38.101Z,100.00
2023-04-19T21:18:08.815Z,100.00
2023-04-19T21:20:38.218Z,100.00
2023-04-19T21:23:07.501Z,100.00
2023-04-19T21:25:36.726Z,100.00
2023-04-19T21:28:05.899Z,100.00
2023-04-19T21:30:38.877Z,100.00
2023-04-19T21:33:09.731Z,100.00
2023-04-19T21:35:39.075Z,100.00
2023-04-19T21:38:08.349Z,100.00
2023-04-19T21:40:37.527Z,100.00
2023-04-19T21:43:06.769Z,100.00
2023-04-19T21:45:35.891Z,100.00
2023-04-19T21:48:05.192Z,100.00
2023-04-19T21:50:38.032Z,100.00
2023-04-19T21:53:07.416Z,100.00
2023-04-19T21:55:36.559Z,100.00
2023-04-19T21:58:05.916Z,100.00
2023-04-19T22:00:35.021Z,100.00
2023-04-19T22:03:04.413Z,100.00
2023-04-19T22:05:35.097Z,100.00
2023-04-19T22:08:05.924Z,100.00
2023-04-19T22:10:35.285Z,100.00
2023-04-19T22:13:06.180Z,100.00
2023-04-19T22:15:35.261Z,100.00
2023-04-19T22:18:04.877Z,100.00
2023-04-19T22:20:37.116Z,100.00
2023-04-19T22:23:06.411Z,100.00
2023-04-19T22:25:35.797Z,100.00
2023-04-19T22:28:07.301Z,100.00
2023-04-19T22:30:37.030Z,100.00
2023-04-19T22:33:06.347Z,100.00
2023-04-19T22:35:37.005Z,100.00
2023-04-19T22:38:06.530Z,100.00
2023-04-19T22:40:35.507Z,100.00
2023-04-19T22:43:04.766Z,100.00
2023-04-19T22:45:33.973Z,100.00
2023-04-19T22:48:03.555Z,100.00
2023-04-19T22:50:32.817Z,100.00
2023-04-19T22:53:03.633Z,100.00
2023-04-19T22:55:32.743Z,100.00
2023-04-19T22:58:02.100Z,100.00
2023-04-19T23:00:31.273Z,100.00
2023-04-19T23:03:00.492Z,100.00
2023-04-19T23:05:30.105Z,100.00
2023-04-19T23:08:00.391Z,100.00
2023-04-19T23:10:32.007Z,100.00
2023-04-19T23:13:01.216Z,100.00
2023-04-19T23:15:30.806Z,100.00
2023-04-19T23:18:02.459Z,100.00
2023-04-19T23:20:32.384Z,100.00
2023-04-19T23:23:01.607Z,100.00
2023-04-19T23:25:32.278Z,100.00
2023-04-19T23:28:01.528Z,100.00
2023-04-19T23:30:32.186Z,100.00
2023-04-19T23:33:01.520Z,100.00
2023-04-19T23:35:30.744Z,100.00
2023-04-19T23:37:59.897Z,100.00
2023-04-19T23:40:29.036Z,100.00
2023-04-19T23:42:59.642Z,100.00
2023-04-19T23:45:28.836Z,100.00
2023-04-19T23:47:57.947Z,100.00
2023-04-19T23:50:27.346Z,100.00
2023-04-19T23:52:56.398Z,100.00
2023-04-19T23:55:25.808Z,100.00
2023-04-19T23:57:54.759Z,100.00
